Time;durP1;ratioP1;P1;durP2;ratioP2;P2;SDS_P1;SDS_P2;PMS_P1;PMS_P2;Temp;Humidity;BMP_temperature;BMP_pressure;BME280_temperature;BME280_humidity;BME280_pressure;Samples;Min_cycle;Max_cycle;Signal;HPM_P1;HPM_P2
2022/01/26 00:07:07;;;;;;;90.70;44.70;;;;;;;-5.40;68.39;101059.67;126336;1096;104569;-82
2022/01/26 00:09:39;;;;;;;90.40;42.47;;;;;;;-5.42;68.53;101064.63;126325;1096;104162;-82
2022/01/26 00:12:13;;;;;;;85.70;41.87;;;;;;;-5.41;68.53;101055.29;126309;1097;104169;-83
2022/01/26 00:14:47;;;;;;;92.33;42.27;;;;;;;-5.39;68.43;101056.38;126279;1099;104666;-83
2022/01/26 00:17:18;;;;;;;87.90;41.63;;;;;;;-5.36;68.95;101056.72;126342;1099;104195;-83
2022/01/26 00:19:55;;;;;;;79.63;36.53;;;;;;;-5.37;68.45;101062.56;126275;1099;105555;-83
2022/01/26 00:22:43;;;;;;;75.17;36.00;;;;;;;-5.39;68.38;101058.02;126377;1096;104185;-83
2022/01/26 00:25:34;;;;;;;80.27;37.67;;;;;;;-5.40;69.28;101056.22;126374;1096;104153;-83
2022/01/26 00:28:31;;;;;;;82.60;38.10;;;;;;;-5.40;68.81;101052.00;126350;1096;104137;-83
2022/01/26 00:33:06;;;;;;;81.90;39.43;;;;;;;-5.38;68.74;101058.17;126329;1096;104264;-83
2022/01/26 00:40:03;;;;;;;85.50;38.93;;;;;;;-5.21;69.15;101056.53;125276;1099;104181;-83
2022/01/26 00:42:38;;;;;;;83.70;39.37;;;;;;;-5.19;69.05;101049.91;126096;1099;104293;-83
2022/01/26 00:45:10;;;;;;;80.90;37.60;;;;;;;-5.16;69.02;101047.69;126260;1096;104318;-83
2022/01/26 00:47:42;;;;;;;82.05;39.40;;;;;;;-5.15;69.08;101052.07;126286;1099;104238;-83
2022/01/26 00:50:15;;;;;;;80.00;37.80;;;;;;;-5.16;69.82;101038.34;126344;1096;104210;-83
2022/01/26 00:52:53;;;;;;;82.12;38.70;;;;;;;-5.17;69.55;101039.11;126288;1097;111707;-83
2022/01/26 00:55:24;;;;;;;82.37;39.07;;;;;;;-5.19;69.52;101035.46;126374;1099;104219;-83
2022/01/26 00:57:58;;;;;;;90.63;41.93;;;;;;;-5.20;69.42;101032.73;126365;1099;104130;-83
2022/01/26 01:00:29;;;;;;;;;;;;;;;-5.18;69.87;101028.72;126224;1098;104405;-83
2022/01/26 01:03:01;;;;;;;86.47;39.90;;;;;;;-5.16;69.34;101030.67;125370;1099;104205;-83
2022/01/26 01:05:37;;;;;;;79.37;37.50;;;;;;;-5.15;69.04;101026.48;126218;1099;104328;-83
2022/01/26 01:08:13;;;;;;;78.93;37.27;;;;;;;-5.15;69.62;101018.80;126246;1099;104720;-83
2022/01/26 01:10:47;;;;;;;79.77;37.07;;;;;;;-5.14;69.88;101016.41;126177;1099;104226;-83
2022/01/26 01:13:22;;;;;;;78.85;37.58;;;;;;;-5.13;69.66;101015.64;126120;1099;109167;-82
2022/01/26 01:15:54;;;;;;;77.57;35.47;;;;;;;-5.14;69.62;101011.29;126210;1099;104563;-82
2022/01/26 01:18:33;;;;;;;79.53;37.50;;;;;;;-5.15;69.32;101006.91;126228;1099;104178;-82
2022/01/26 01:29:41;;;;;;;82.43;38.33;;;;;;;-5.17;69.69;100993.05;125784;1099;105018;-83
2022/01/26 01:32:15;;;;;;;75.00;35.43;;;;;;;-5.14;69.61;100990.81;126236;1099;104236;-83
2022/01/26 01:34:50;;;;;;;75.20;37.40;;;;;;;-5.11;69.70;100987.66;126312;1099;104226;-83
2022/01/26 01:37:21;;;;;;;76.37;37.07;;;;;;;-5.06;69.77;100987.41;126354;1099;104185;-83
2022/01/26 01:39:53;;;;;;;80.17;37.23;;;;;;;-5.03;70.01;100988.47;126318;1099;104313;-82
2022/01/26 01:42:25;;;;;;;82.30;37.47;;;;;;;-5.02;69.59;100985.17;126317;1099;104210;-83
2022/01/26 01:44:57;;;;;;;80.10;37.90;;;;;;;-5.00;69.22;100988.78;126325;1099;104193;-83
2022/01/26 01:47:29;;;;;;;84.27;38.13;;;;;;;-4.98;70.29;100989.87;126353;1099;104150;-82
2022/01/26 01:50:02;;;;;;;74.77;34.03;;;;;;;-4.98;70.04;100990.77;126349;1097;104297;-82
2022/01/26 01:52:34;;;;;;;83.07;38.30;;;;;;;-4.97;70.18;100987.48;126279;1099;104166;-82
2022/01/26 01:55:09;;;;;;;77.70;37.83;;;;;;;-4.95;69.97;100985.97;126380;1096;104239;-83
2022/01/26 01:57:41;;;;;;;81.70;38.57;;;;;;;-4.93;70.20;100991.25;126350;1096;104131;-82
2022/01/26 02:00:14;;;;;;;77.70;36.20;;;;;;;-4.93;70.24;100989.59;126353;1099;104150;-82
2022/01/26 02:02:50;;;;;;;78.10;36.03;;;;;;;-4.94;69.92;100989.42;126284;1096;104364;-83
2022/01/26 02:05:21;;;;;;;73.95;36.30;;;;;;;-4.94;70.38;100986.87;126272;1099;104319;-82
2022/01/26 02:07:53;;;;;;;76.90;35.93;;;;;;;-4.95;70.58;100978.30;126360;1099;104146;-82
2022/01/26 02:10:25;;;;;;;75.57;36.07;;;;;;;-4.94;70.09;100984.31;126310;1099;104143;-82
2022/01/26 02:13:01;;;;;;;74.20;35.77;;;;;;;-4.93;70.33;100978.45;126317;1099;104162;-82
2022/01/26 02:15:41;;;;;;;73.97;36.30;;;;;;;-4.94;70.39;100975.00;126352;1096;104303;-83
2022/01/26 02:18:28;;;;;;;78.00;37.33;;;;;;;-4.92;70.31;100970.04;126284;1096;104143;-82
2022/01/26 02:49:49;;;;;;;77.83;38.70;;;;;;;-4.65;71.01;100956.61;126362;1096;104140;-82
2022/01/26 02:52:42;;;;;;;81.63;37.80;;;;;;;-4.60;71.95;100967.34;126323;1096;104143;-83
2022/01/26 02:55:23;;;;;;;80.73;37.53;;;;;;;-4.59;71.07;100957.25;126298;1097;104147;-83
2022/01/26 03:01:28;;;;;;;77.47;37.13;;;;;;;-4.57;71.49;100957.41;125275;1102;104217;-83
2022/01/26 03:04:07;;;;;;;78.10;38.70;;;;;;;-4.55;71.22;100958.45;125306;1102;104172;-82
2022/01/26 03:06:45;;;;;;;80.20;40.33;;;;;;;-4.55;71.19;100958.45;125251;1102;104143;-82
2022/01/26 03:09:22;;;;;;;81.20;39.97;;;;;;;-4.53;71.44;100956.98;125257;1102;104146;-82
2022/01/26 03:11:55;;;;;;;67.37;34.17;;;;;;;-4.52;71.28;100959.70;125195;1102;104210;-82
2022/01/26 03:14:36;;;;;;;81.27;38.73;;;;;;;-4.50;71.24;100952.17;125205;1102;104159;-81
2022/01/26 03:17:17;;;;;;;78.43;37.70;;;;;;;-4.49;71.09;100943.72;125193;1102;104163;-82
2022/01/26 03:19:53;;;;;;;84.10;40.63;;;;;;;-4.46;71.15;100948.27;125240;1102;104149;-82
2022/01/26 03:28:21;;;;;;;87.47;42.60;;;;;;;-4.31;71.36;100938.69;125229;1102;104175;-81
2022/01/26 03:33:54;;;;;;;89.43;42.90;;;;;;;-4.22;71.31;100945.64;125094;1102;104150;-82
2022/01/26 03:36:30;;;;;;;90.33;44.23;;;;;;;-4.18;71.50;100944.28;125270;1102;104627;-82
2022/01/26 03:39:07;;;;;;;87.30;42.03;;;;;;;-4.17;71.36;100938.41;125130;1102;104155;-81
2022/01/26 03:41:43;;;;;;;95.13;42.37;;;;;;;-4.13;71.58;100935.38;125140;1102;104139;-82
2022/01/26 03:44:15;;;;;;;91.73;45.03;;;;;;;-4.09;71.25;100940.08;125151;1102;104191;-81
2022/01/26 03:46:48;;;;;;;86.13;42.40;;;;;;;-4.06;71.36;100936.94;125304;1102;104150;-81
2022/01/26 03:49:19;;;;;;;86.87;44.10;;;;;;;-4.01;71.77;100934.06;125133;1102;104236;-82
2022/01/26 03:51:53;;;;;;;82.40;42.20;;;;;;;-3.98;71.43;100926.67;125180;1102;104168;-81
2022/01/26 03:54:25;;;;;;;87.00;43.80;;;;;;;-3.95;71.71;100931.21;125280;1102;104183;-82
2022/01/26 03:56:56;;;;;;;85.37;43.07;;;;;;;-3.94;71.72;100926.98;125230;1102;104153;-82
2022/01/26 03:59:28;;;;;;;84.20;42.80;;;;;;;-3.91;71.41;100925.66;125275;1102;104287;-82
2022/01/26 04:01:59;;;;;;;84.40;42.57;;;;;;;-3.88;71.69;100923.39;125147;1102;104143;-82
2022/01/26 04:04:37;;;;;;;85.67;43.30;;;;;;;-3.86;72.11;100916.75;125261;1102;104257;-82
2022/01/26 04:07:11;;;;;;;86.93;43.07;;;;;;;-3.83;71.59;100922.18;125270;1102;104229;-82
2022/01/26 04:09:43;;;;;;;84.83;42.70;;;;;;;-3.81;72.32;100915.53;125175;1102;105245;-83
2022/01/26 04:12:20;;;;;;;87.43;43.27;;;;;;;-3.80;71.68;100911.34;125250;1102;104150;-82
2022/01/26 04:14:57;;;;;;;88.43;42.53;;;;;;;-3.78;72.27;100909.81;125229;1102;104146;-82
2022/01/26 04:17:29;;;;;;;84.63;41.23;;;;;;;-3.77;71.83;100909.08;125206;1102;104146;-82
2022/01/26 04:20:00;;;;;;;83.97;42.17;;;;;;;-3.76;71.81;100908.30;125264;1102;104223;-82
2022/01/26 04:22:39;;;;;;;85.53;43.67;;;;;;;-3.75;72.32;100899.86;125236;1102;104191;-82
2022/01/26 04:25:12;;;;;;;87.90;43.83;;;;;;;-3.73;71.78;100898.34;125259;1102;104363;-82
2022/01/26 04:27:47;;;;;;;89.13;44.13;;;;;;;-3.69;71.73;100900.47;125146;1102;104261;-82
2022/01/26 04:30:19;;;;;;;85.13;42.53;;;;;;;-3.64;72.44;100893.22;125210;1101;104159;-83
2022/01/26 04:32:51;;;;;;;79.90;40.10;;;;;;;-3.62;72.37;100892.59;125201;1102;105598;-84
2022/01/26 04:35:22;;;;;;;79.43;39.80;;;;;;;-3.59;72.72;100896.24;125188;1102;104249;-83
2022/01/26 04:38:12;;;;;;;85.47;41.50;;;;;;;-3.59;72.32;100892.00;125237;1102;104150;-83
2022/01/26 04:40:52;;;;;;;81.27;41.43;;;;;;;-3.56;72.73;100888.84;125175;1102;104159;-83
2022/01/26 04:43:29;;;;;;;75.57;38.00;;;;;;;-3.54;73.44;100892.45;125157;1102;104175;-80
2022/01/26 04:46:01;;;;;;;81.77;39.37;;;;;;;-3.54;73.23;100890.78;125233;1102;104243;-82
2022/01/26 04:48:32;;;;;;;86.03;40.90;;;;;;;-3.56;73.07;100887.17;125184;1102;104168;-82
2022/01/26 04:51:04;;;;;;;85.23;40.83;;;;;;;-3.55;73.38;100889.00;125226;1102;104230;-82
2022/01/26 04:53:35;;;;;;;86.03;43.53;;;;;;;-3.55;72.10;100883.87;125174;1102;104419;-82
2022/01/26 04:56:07;;;;;;;90.87;42.57;;;;;;;-3.55;72.46;100882.94;125264;1102;104146;-82
2022/01/26 04:58:39;;;;;;;84.77;42.43;;;;;;;-3.53;72.49;100881.45;125244;1102;104159;-81
2022/01/26 05:01:14;;;;;;;92.80;46.60;;;;;;;-3.51;72.27;100874.80;125176;1102;104159;-83
2022/01/26 05:03:45;;;;;;;93.97;44.07;;;;;;;-3.50;73.18;100871.48;125196;1102;104322;-82
2022/01/26 05:06:16;;;;;;;89.20;44.67;;;;;;;-3.48;72.42;100869.97;125158;1102;104210;-82
2022/01/26 05:08:48;;;;;;;88.07;42.60;;;;;;;-3.50;73.45;100862.12;125176;1102;104188;-82
2022/01/26 05:11:28;;;;;;;88.77;43.40;;;;;;;-3.46;72.85;100868.44;125142;1102;104155;-81
2022/01/26 05:14:00;;;;;;;95.57;47.63;;;;;;;-3.44;72.97;100860.15;125033;1102;104274;-82
2022/01/26 05:16:31;;;;;;;94.73;47.53;;;;;;;-3.42;72.32;100862.86;125049;1102;104239;-82
2022/01/26 05:19:05;;;;;;;91.20;45.43;;;;;;;-3.39;72.85;100860.59;125121;1102;104181;-82
2022/01/26 05:21:36;;;;;;;87.35;44.10;;;;;;;-3.36;73.03;100858.33;124946;1105;104127;-82
2022/01/26 05:24:10;;;;;;;87.70;44.43;;;;;;;-3.35;73.33;100855.02;124882;1105;104404;-82
2022/01/26 05:26:43;;;;;;;85.35;43.63;;;;;;;-3.32;73.02;100856.95;125008;1102;104333;-82
2022/01/26 05:29:15;;;;;;;88.73;45.23;;;;;;;-3.29;72.50;100853.03;124993;1102;104258;-81
2022/01/26 05:31:46;;;;;;;90.37;44.83;;;;;;;-3.26;73.36;100854.97;124974;1102;104322;-82
2022/01/26 05:34:18;;;;;;;89.17;46.10;;;;;;;-3.23;73.04;100865.53;124965;1101;104291;-82
2022/01/26 05:36:49;;;;;;;95.40;45.10;;;;;;;-3.21;73.69;100866.61;124965;1102;104146;-82
2022/01/26 05:39:21;;;;;;;91.60;44.63;;;;;;;-3.19;72.86;100865.08;124999;1102;104201;-82
2022/01/26 05:41:53;;;;;;;94.17;48.07;;;;;;;-3.17;73.65;100860.99;124998;1102;104300;-83
2022/01/26 05:44:27;;;;;;;95.37;45.40;;;;;;;-3.16;73.28;100860.24;124829;1105;104318;-83
2022/01/26 05:47:00;;;;;;;93.73;46.07;;;;;;;-3.12;72.69;100857.19;124981;1102;104168;-81
2022/01/26 05:49:34;;;;;;;89.17;45.90;;;;;;;-3.11;72.71;100858.12;124977;1102;104171;-82
2022/01/26 05:52:09;;;;;;;92.47;47.40;;;;;;;-3.08;72.90;100854.17;124970;1105;104300;-82
2022/01/26 05:54:41;;;;;;;97.42;49.70;;;;;;;-3.04;72.89;100852.78;125094;1099;104252;-82
2022/01/26 05:57:15;;;;;;;91.80;46.23;;;;;;;-2.98;73.20;100855.05;125036;1100;104376;-83
2022/01/26 05:59:46;;;;;;;87.37;46.28;;;;;;;-2.93;73.67;100847.03;125542;1099;104262;-82
2022/01/26 06:02:18;;;;;;;90.30;45.40;;;;;;;-2.86;73.80;100845.05;125159;1102;104677;-82
2022/01/26 06:04:49;;;;;;;95.40;48.33;;;;;;;-2.77;73.28;100851.05;125990;1099;102861;-82
2022/01/26 06:07:22;;;;;;;89.93;44.97;;;;;;;-2.68;73.67;100851.91;125236;1099;104159;-82
2022/01/26 06:09:54;;;;;;;85.57;44.57;;;;;;;-2.61;73.35;100848.24;125532;1099;104274;-81
2022/01/26 06:12:33;;;;;;;82.93;43.17;;;;;;;-2.54;73.78;100845.46;126227;1099;104223;-81
2022/01/26 06:15:06;;;;;;;84.70;43.17;;;;;;;-2.47;72.83;100846.96;126263;1099;104175;-81
2022/01/26 06:17:38;;;;;;;86.47;44.77;;;;;;;-2.46;72.80;100846.18;126254;1099;104156;-81
2022/01/26 06:20:12;;;;;;;84.90;43.50;;;;;;;-2.42;74.17;100850.85;126367;1099;104149;-81
2022/01/26 06:22:45;;;;;;;83.30;44.15;;;;;;;-2.41;72.76;100852.67;126350;1099;104141;-81
2022/01/26 06:25:19;;;;;;;94.43;46.30;;;;;;;-2.41;73.34;100847.53;126135;1099;104207;-81
2022/01/26 06:27:52;;;;;;;89.87;46.43;;;;;;;-2.40;73.83;100834.82;126193;1099;104169;-81
2022/01/26 06:30:25;;;;;;;83.60;44.20;;;;;;;-2.35;73.87;100845.53;126019;1099;104313;-81
2022/01/26 06:33:00;;;;;;;85.77;44.70;;;;;;;-2.31;74.01;100846.70;126002;1099;104341;-83
2022/01/26 06:35:35;;;;;;;81.73;42.40;;;;;;;-2.30;72.91;100843.39;125980;1099;104363;-81
2022/01/26 06:38:09;;;;;;;83.80;43.27;;;;;;;-2.26;73.10;100843.81;125942;1099;104242;-81
2022/01/26 06:40:47;;;;;;;87.07;44.33;;;;;;;-2.17;73.80;100843.73;125969;1099;104147;-82
2022/01/26 06:43:22;;;;;;;79.73;40.80;;;;;;;-2.14;72.87;100844.02;126035;1099;104651;-81
2022/01/26 06:46:01;;;;;;;75.23;39.00;;;;;;;-2.08;73.92;100848.82;125888;1099;104271;-83
2022/01/26 06:48:57;;;;;;;78.37;40.30;;;;;;;-2.07;73.09;100837.75;125966;1099;104137;-83
2022/01/26 06:51:29;;;;;;;76.53;39.63;;;;;;;-2.02;73.19;100841.67;125882;1099;104169;-84
2022/01/26 06:54:08;;;;;;;78.83;42.10;;;;;;;-1.99;74.37;100837.70;126025;1099;104192;-83
2022/01/26 06:56:39;;;;;;;76.77;39.97;;;;;;;-1.94;73.50;100832.97;125914;1099;110362;-82
2022/01/26 06:59:15;;;;;;;83.80;43.15;;;;;;;-1.89;73.28;100826.56;125847;1099;104198;-84
2022/01/26 07:01:54;;;;;;;78.10;39.10;;;;;;;-1.85;73.11;100822.62;126068;1099;104280;-83
2022/01/26 07:04:29;;;;;;;83.53;41.77;;;;;;;-1.77;72.86;100828.45;125862;1099;104136;-83
2022/01/26 07:07:06;;;;;;;85.67;44.00;;;;;;;-1.68;73.78;100830.17;125931;1098;104628;-83
2022/01/26 07:09:39;;;;;;;84.07;41.30;;;;;;;-1.59;73.49;100830.11;126067;1098;104150;-81
2022/01/26 07:12:12;;;;;;;76.17;40.60;;;;;;;-1.54;73.79;100828.84;126149;1099;104201;-83
2022/01/26 07:23:33;;;;;;;78.90;40.23;;;;;;;-1.48;74.11;100837.11;125844;1099;104219;-84
2022/01/26 07:26:28;;;;;;;79.00;41.53;;;;;;;-1.47;74.29;100836.31;125780;1099;104214;-82
2022/01/26 07:29:11;;;;;;;86.53;43.83;;;;;;;-1.40;73.41;100839.44;125991;1099;104261;-82
2022/01/26 07:31:48;;;;;;;88.50;43.77;;;;;;;-1.32;73.96;100834.20;125315;1099;104216;-82
2022/01/26 07:34:23;;;;;;;85.50;43.63;;;;;;;-1.22;73.88;100835.02;125893;1099;102007;-82
2022/01/26 07:37:08;;;;;;;80.37;44.80;;;;;;;-1.12;74.30;100832.49;125750;1099;104162;-81
2022/01/26 07:43:04;;;;;;;80.13;41.13;;;;;;;-0.86;73.70;100827.00;125023;1102;104416;-84
2022/01/26 07:45:38;;;;;;;70.40;37.67;;;;;;;-0.77;73.28;100827.80;124990;1102;104302;-86
2022/01/26 07:48:13;;;;;;;70.13;37.97;;;;;;;-0.64;74.43;100822.04;125127;1102;104488;-82
2022/01/26 07:50:50;;;;;;;76.73;39.10;;;;;;;-0.52;74.16;100827.31;124999;1102;104249;-82
2022/01/26 07:53:23;;;;;;;71.50;37.80;;;;;;;-0.40;73.69;100820.62;125158;1102;104495;-80
2022/01/26 07:55:57;;;;;;;73.17;37.77;;;;;;;-0.26;74.27;100818.31;124890;1102;104872;-81
2022/01/26 07:58:35;;;;;;;70.42;39.05;;;;;;;-0.16;74.05;100817.39;125167;1102;108873;-84
2022/01/26 08:01:09;;;;;;;72.27;37.30;;;;;;;-0.13;73.50;100821.13;125112;1102;104457;-83
2022/01/26 08:03:45;;;;;;;70.33;39.03;;;;;;;-0.09;73.43;100822.30;125223;1102;104150;-82
2022/01/26 08:06:33;;;;;;;67.23;36.90;;;;;;;-0.12;74.26;100822.94;125255;1102;104150;-84
2022/01/26 08:09:10;;;;;;;73.10;37.73;;;;;;;-0.13;74.00;100822.81;125150;1102;119887;-83
2022/01/26 08:11:42;;;;;;;69.53;37.17;;;;;;;-0.15;74.31;100824.37;125056;1102;102567;-83
2022/01/26 08:14:16;;;;;;;71.70;38.67;;;;;;;-0.12;74.21;100828.09;124791;1105;104162;-81
2022/01/26 08:16:49;;;;;;;72.05;39.20;;;;;;;-0.09;74.51;100825.77;124792;1105;104220;-83
2022/01/26 08:19:35;;;;;;;64.03;33.37;;;;;;;-0.05;74.37;100833.00;124821;1105;104158;-85
2022/01/26 08:22:18;;;;;;;70.30;36.70;;;;;;;-0.06;73.85;100828.61;124843;1105;104412;-85
2022/01/26 08:24:57;;;;;;;71.63;36.00;;;;;;;-0.08;74.43;100834.41;124866;1105;104673;-84
2022/01/26 08:27:37;;;;;;;62.10;33.20;;;;;;;-0.09;73.75;100828.35;124781;1105;104639;-83
2022/01/26 08:30:17;;;;;;;63.70;34.13;;;;;;;-0.05;73.88;100830.42;124920;1105;104335;-82
2022/01/26 08:32:51;;;;;;;62.17;33.30;;;;;;;0.00;74.62;100833.39;124980;1102;104185;-84
2022/01/26 08:35:30;;;;;;;63.27;32.77;;;;;;;0.02;74.79;100836.06;125118;1102;104232;-82
2022/01/26 08:38:04;;;;;;;64.33;33.30;;;;;;;0.03;74.16;100837.88;124945;1102;103616;-83
2022/01/26 08:40:45;;;;;;;59.63;32.00;;;;;;;0.07;74.17;100827.94;125086;1102;104226;-83
2022/01/26 08:43:19;;;;;;;68.23;34.30;;;;;;;0.16;74.87;100827.81;125117;1102;105313;-82
2022/01/26 08:45:56;;;;;;;63.90;34.80;;;;;;;0.25;74.54;100831.14;125106;1102;104155;-83
2022/01/26 08:48:34;;;;;;;63.80;33.27;;;;;;;0.28;74.41;100831.40;125110;1102;104214;-82
2022/01/26 08:51:11;;;;;;;69.70;35.33;;;;;;;0.35;74.50;100830.21;125060;1102;104475;-83
2022/01/26 08:53:45;;;;;;;58.93;33.17;;;;;;;0.40;74.80;100830.59;125022;1102;104877;-82
2022/01/26 08:56:19;;;;;;;63.03;34.10;;;;;;;0.48;74.57;100824.36;125045;1102;104184;-84
2022/01/26 08:58:56;;;;;;;61.50;33.67;;;;;;;0.53;74.67;100825.62;125034;1102;105396;-83
2022/01/26 09:01:43;;;;;;;68.30;35.80;;;;;;;0.60;74.14;100819.30;125089;1102;104239;-82
2022/01/26 09:04:25;;;;;;;66.73;37.30;;;;;;;0.64;74.30;100822.24;124861;1105;104265;-82
2022/01/26 09:07:08;;;;;;;71.00;38.23;;;;;;;0.69;74.66;100826.09;124910;1106;104223;-84
2022/01/26 09:09:55;;;;;;;58.60;30.67;;;;;;;0.75;74.53;100827.34;124885;1102;105294;-83
2022/01/26 09:12:37;;;;;;;55.77;29.43;;;;;;;0.79;74.87;100829.41;124893;1105;104357;-83
2022/01/26 09:15:18;;;;;;;55.10;29.05;;;;;;;0.83;74.94;100834.05;124933;1104;104537;-83
2022/01/26 09:18:13;;;;;;;48.73;26.90;;;;;;;0.85;75.34;100829.90;124906;1105;104255;-83
2022/01/26 09:21:07;;;;;;;48.93;26.20;;;;;;;0.83;74.84;100829.78;124823;1105;104012;-81
2022/01/26 09:23:58;;;;;;;54.97;28.30;;;;;;;0.86;74.93;100829.13;124839;1105;104403;-83
2022/01/26 09:26:35;;;;;;;56.77;28.67;;;;;;;0.88;74.59;100822.39;124979;1105;104389;-83
2022/01/26 09:29:10;;;;;;;58.63;30.10;;;;;;;0.91;74.80;100821.75;124902;1105;104361;-85
2022/01/26 09:31:47;;;;;;;59.20;29.80;;;;;;;0.92;75.18;100820.94;124855;1102;104238;-82
2022/01/26 09:34:25;;;;;;;57.53;30.27;;;;;;;0.93;75.29;100818.48;124986;1103;104221;-81
2022/01/26 09:37:07;;;;;;;55.03;29.30;;;;;;;0.96;75.08;100820.42;124932;1105;104395;-82
2022/01/26 09:40:02;;;;;;;57.23;30.90;;;;;;;0.98;75.12;100817.19;124943;1103;104390;-84
2022/01/26 09:42:38;;;;;;;53.57;28.07;;;;;;;1.01;75.01;100813.92;124942;1105;104460;-82
2022/01/26 09:45:34;;;;;;;56.93;28.40;;;;;;;1.04;75.12;100815.09;124937;1102;104158;-82
2022/01/26 09:48:37;;;;;;;55.20;29.00;;;;;;;1.05;75.53;100810.80;124945;1105;104357;-80
2022/01/26 09:51:20;;;;;;;50.43;25.90;;;;;;;1.06;75.19;100805.76;124848;1102;104672;-80
2022/01/26 09:54:09;;;;;;;51.17;28.03;;;;;;;1.11;75.49;100805.20;125127;1102;102458;-82
2022/01/26 09:57:00;;;;;;;52.77;27.47;;;;;;;1.14;75.43;100801.19;125123;1102;104287;-81
2022/01/26 09:59:41;;;;;;;50.33;26.67;;;;;;;1.18;75.10;100803.21;125162;1102;104355;-81
2022/01/26 10:02:36;;;;;;;52.23;28.20;;;;;;;1.18;75.56;100803.21;125096;1102;104310;-81
2022/01/26 10:05:12;;;;;;;48.83;24.70;;;;;;;1.17;76.18;100805.67;125034;1102;104206;-84
2022/01/26 10:32:59;;;;;;;39.70;18.37;;;;;;;1.05;76.99;100795.30;125077;1102;104321;-81
2022/01/26 10:35:30;;;;;;;;;;;;;;;1.06;76.92;100791.91;124909;1103;104353;-82
2022/01/26 10:38:09;;;;;;;32.50;15.33;;;;;;;1.08;76.89;100786.09;124906;1105;104810;-80
2022/01/26 10:40:48;;;;;;;27.87;12.93;;;;;;;1.12;77.73;100788.91;124591;1106;104315;-84
2022/01/26 10:43:29;;;;;;;27.10;12.83;;;;;;;1.16;78.19;100786.69;124807;1106;105091;-81
2022/01/26 10:46:13;;;;;;;26.67;12.93;;;;;;;1.20;77.13;100790.41;124798;1106;104484;-83
2022/01/26 10:49:09;;;;;;;29.73;13.50;;;;;;;1.23;77.20;100795.81;124765;1106;104262;-83
2022/01/26 10:51:59;;;;;;;31.03;13.63;;;;;;;1.27;76.85;100786.63;124818;1105;104172;-82
2022/01/26 10:54:39;;;;;;;26.43;13.33;;;;;;;1.30;77.68;100785.18;124783;1105;119006;-82
2022/01/26 10:57:16;;;;;;;25.00;12.10;;;;;;;1.34;77.51;100784.64;124753;1105;104191;-80
2022/01/26 10:59:50;;;;;;;27.13;12.57;;;;;;;1.37;78.18;100778.78;124809;1104;104188;-81
2022/01/26 11:02:34;;;;;;;25.08;12.23;;;;;;;1.40;77.91;100776.44;124694;1105;104220;-81
2022/01/26 11:05:11;;;;;;;24.57;11.73;;;;;;;1.41;77.66;100773.97;124707;1105;104329;-81
2022/01/26 11:07:46;;;;;;;27.10;12.13;;;;;;;1.43;77.90;100779.25;124748;1106;104335;-81
2022/01/26 11:10:23;;;;;;;23.97;11.83;;;;;;;1.44;77.91;100776.78;125761;1102;102894;-81
2022/01/26 11:12:58;;;;;;;25.30;12.20;;;;;;;1.46;77.33;100774.31;124782;1105;105408;-79
2022/01/26 11:15:31;;;;;;;26.33;12.60;;;;;;;1.49;77.51;100776.25;124795;1102;102575;-79
2022/01/26 11:18:19;;;;;;;24.45;12.15;;;;;;;1.53;77.70;100776.59;124755;1106;104181;-80
2022/01/26 11:20:56;;;;;;;26.83;12.67;;;;;;;1.56;77.69;100766.48;125283;1105;104283;-79
2022/01/26 11:23:40;;;;;;;25.83;12.10;;;;;;;1.59;77.56;100766.72;124621;1102;104163;-78
2022/01/26 11:26:26;;;;;;;27.70;14.10;;;;;;;1.58;78.35;100769.19;124925;1102;104191;-79
2022/01/26 11:29:01;;;;;;;29.40;14.07;;;;;;;1.59;77.49;100770.97;124657;1102;104188;-78
2022/01/26 11:31:38;;;;;;;29.63;13.73;;;;;;;1.58;77.67;100764.91;124903;1102;104254;-78
2022/01/26 11:34:13;;;;;;;27.50;14.05;;;;;;;1.60;77.92;100765.02;124710;1101;104320;-79
2022/01/26 11:36:50;;;;;;;27.27;14.63;;;;;;;1.59;78.06;100761.55;124897;1102;104319;-79
2022/01/26 11:45:13;;;;;;;26.97;12.70;;;;;;;1.65;78.54;100755.02;124683;1103;104335;-79
2022/01/26 11:48:00;;;;;;;24.53;11.40;;;;;;;1.66;78.39;100755.14;124983;1101;104252;-78
2022/01/26 11:50:36;;;;;;;26.27;12.03;;;;;;;1.68;78.14;100760.43;124965;1102;104198;-78
2022/01/26 11:53:12;;;;;;;28.83;13.73;;;;;;;1.68;78.40;100753.55;124901;1102;104281;-76
2022/01/26 11:55:49;;;;;;;26.73;13.47;;;;;;;1.70;78.48;100754.59;125158;1102;104252;-76
2022/01/26 11:58:41;;;;;;;29.70;14.45;;;;;;;1.70;78.20;100749.42;125107;1102;104158;-77
2022/01/26 12:01:21;;;;;;;28.33;13.67;;;;;;;1.71;78.61;100751.20;124838;1102;104197;-76
2022/01/26 12:04:01;;;;;;;27.63;13.20;;;;;;;1.74;78.28;100748.84;124932;1102;104165;-78
2022/01/26 12:06:42;;;;;;;28.07;12.70;;;;;;;1.73;78.27;100754.83;124729;1103;104296;-78
2022/01/26 12:09:16;;;;;;;26.83;12.90;;;;;;;1.72;78.35;100753.02;125070;1102;104222;-78
2022/01/26 12:11:55;;;;;;;25.97;13.60;;;;;;;1.71;78.54;100755.48;124770;1105;104153;-77
2022/01/26 12:14:30;;;;;;;28.50;12.93;;;;;;;1.69;78.03;100752.78;124781;1105;104223;-78
2022/01/26 12:17:05;;;;;;;27.03;12.40;;;;;;;1.70;79.31;100749.42;124773;1105;104194;-77
2022/01/26 12:19:50;;;;;;;26.63;12.50;;;;;;;1.71;78.72;100751.20;124876;1105;104156;-78
2022/01/26 12:34:26;;;;;;;27.63;12.23;;;;;;;1.65;79.13;100753.33;124901;1105;104239;-77
2022/01/26 12:37:12;;;;;;;30.77;12.20;;;;;;;1.66;79.29;100755.14;124773;1106;108835;-79
2022/01/26 12:43:09;;;;;;;25.23;11.80;;;;;;;1.65;79.56;100762.78;124947;1105;104296;-78
2022/01/26 12:45:55;;;;;;;25.50;11.97;;;;;;;1.67;79.16;100758.61;124933;1102;104201;-78
2022/01/26 12:48:32;;;;;;;24.57;11.23;;;;;;;1.69;79.27;100757.95;124990;1102;104178;-78
2022/01/26 12:51:07;;;;;;;28.03;12.90;;;;;;;1.73;78.95;100756.48;125055;1102;104255;-79
2022/01/26 12:53:40;;;;;;;27.50;12.70;;;;;;;1.74;79.35;100751.43;124934;1105;104189;-79
2022/01/26 12:56:18;;;;;;;27.90;12.47;;;;;;;1.78;79.14;100757.76;125117;1101;104241;-81
2022/01/26 12:59:02;;;;;;;25.10;12.03;;;;;;;1.80;79.35;100762.23;124864;1102;104319;-79
2022/01/26 13:01:35;;;;;;;25.77;11.90;;;;;;;1.81;79.27;100757.98;125094;1102;104232;-79
2022/01/26 13:04:10;;;;;;;26.57;12.23;;;;;;;1.83;80.02;100755.52;125087;1102;104230;-80
2022/01/26 13:06:51;;;;;;;29.60;13.57;;;;;;;1.82;79.60;100757.18;124949;1102;104201;-79
2022/01/26 13:09:26;;;;;;;27.27;12.87;;;;;;;1.84;79.55;100752.13;125122;1102;104185;-79
2022/01/26 13:12:02;;;;;;;26.67;12.63;;;;;;;1.83;79.68;100763.28;125171;1102;104175;-79
2022/01/26 13:14:40;;;;;;;27.27;12.43;;;;;;;1.83;79.77;100755.52;125083;1102;104181;-79
2022/01/26 13:17:22;;;;;;;25.83;11.60;;;;;;;1.83;79.84;100763.28;125088;1102;104233;-78
2022/01/26 13:20:12;;;;;;;26.20;11.97;;;;;;;1.82;79.55;100758.87;124871;1102;104204;-78
2022/01/26 13:23:05;;;;;;;25.25;11.85;;;;;;;1.79;78.98;100754.36;125022;1102;104220;-78
2022/01/26 13:25:55;;;;;;;27.37;13.17;;;;;;;1.79;80.05;100755.28;125026;1102;102861;-79
2022/01/26 13:28:46;;;;;;;26.30;12.30;;;;;;;1.80;79.57;100767.41;125064;1102;104172;-78
2022/01/26 13:37:08;;;;;;;25.30;11.17;;;;;;;1.78;80.65;100769.00;125134;1102;104204;-78
2022/01/26 13:48:51;;;;;;;23.70;11.33;;;;;;;1.74;79.89;100777.30;124941;1102;104268;-80
2022/01/26 13:51:35;;;;;;;22.73;10.60;;;;;;;1.73;80.29;100777.19;124946;1103;104275;-79
2022/01/26 13:57:27;;;;;;;23.23;10.13;;;;;;;1.72;79.66;100784.06;124703;1105;104383;-79
2022/01/26 14:00:00;;;;;;;21.83;10.83;;;;;;;1.71;80.78;100787.42;125008;1102;104181;-78